createdAt,value
2022-11-16T00:01:45.779Z,6.72
2022-11-16T00:04:13.142Z,6.69
2022-11-16T00:06:40.558Z,6.82
2022-11-16T00:09:22.842Z,6.74
2022-11-16T00:11:55.455Z,6.84
2022-11-16T00:14:24.480Z,6.81
2022-11-16T00:16:51.851Z,6.74
2022-11-16T00:19:18.805Z,6.71
2022-11-16T00:21:46.026Z,6.71
2022-11-16T00:24:14.869Z,6.66
2022-11-16T00:26:42.131Z,6.64
2022-11-16T00:29:17.752Z,6.66
2022-11-16T00:31:45.922Z,6.65
2022-11-16T00:34:13.001Z,6.61
2022-11-16T00:36:39.914Z,6.50
2022-11-16T00:39:06.876Z,6.45
2022-11-16T00:41:33.737Z,6.53
2022-11-16T00:44:00.719Z,6.43
2022-11-16T00:46:27.763Z,6.48
2022-11-16T00:48:54.734Z,6.58
2022-11-16T00:51:21.627Z,6.61
2022-11-16T00:53:48.738Z,6.46
2022-11-16T00:56:15.855Z,6.81
2022-11-16T00:58:44.159Z,6.66
2022-11-16T01:01:11.953Z,6.79
2022-11-16T01:03:39.077Z,6.77
2022-11-16T01:06:08.924Z,6.53
2022-11-16T01:08:38.492Z,6.70
2022-11-16T01:11:32.930Z,6.50
2022-11-16T01:14:03.375Z,6.70
2022-11-16T01:16:30.785Z,6.67
2022-11-16T01:18:57.744Z,6.26
2022-11-16T01:21:25.713Z,6.60
2022-11-16T01:23:52.948Z,6.70
2022-11-16T01:26:20.112Z,6.76
2022-11-16T01:28:47.402Z,6.79
2022-11-16T01:31:14.368Z,6.76
2022-11-16T01:33:42.259Z,6.63
2022-11-16T01:36:17.544Z,6.70
2022-11-16T01:38:47.146Z,6.40
2022-11-16T01:41:23.584Z,6.23
2022-11-16T01:44:26.598Z,6.19
2022-11-16T01:46:57.153Z,6.13
2022-11-16T01:49:27.902Z,6.35
2022-11-16T01:52:01.487Z,6.54
2022-11-16T01:54:33.016Z,6.55
2022-11-16T01:57:07.304Z,6.21
2022-11-16T01:59:41.646Z,5.83
2022-11-16T02:02:15.249Z,6.06
2022-11-16T02:04:43.783Z,6.14
2022-11-16T02:07:21.000Z,6.24
2022-11-16T02:10:12.767Z,6.12
2022-11-16T02:13:00.377Z,6.19
2022-11-16T02:15:45.095Z,6.20
2022-11-16T02:18:42.855Z,6.33
2022-11-16T02:21:35.255Z,6.37
2022-11-16T02:24:17.281Z,6.28
2022-11-16T02:27:21.953Z,6.29
2022-11-16T02:29:55.921Z,6.20
2022-11-16T02:32:52.533Z,6.20
2022-11-16T02:35:29.059Z,6.13
2022-11-16T02:38:14.331Z,6.27
2022-11-16T02:41:01.891Z,5.62
2022-11-16T02:43:44.927Z,6.04
2022-11-16T02:46:27.137Z,6.12
2022-11-16T02:48:57.930Z,6.08
2022-11-16T02:51:28.514Z,5.83
2022-11-16T02:54:12.833Z,5.66
2022-11-16T02:57:15.841Z,5.61
2022-11-16T02:59:46.880Z,5.29
2022-11-16T03:02:31.640Z,5.29
2022-11-16T03:05:13.476Z,5.69
2022-11-16T03:08:00.421Z,5.40
2022-11-16T03:10:49.137Z,5.84
2022-11-16T03:13:17.648Z,5.90
2022-11-16T03:15:45.245Z,5.84
2022-11-16T03:18:16.490Z,5.51
2022-11-16T03:20:44.472Z,5.15
2022-11-16T03:23:14.007Z,5.10
2022-11-16T03:25:51.334Z,5.12
2022-11-16T03:28:34.277Z,5.24
2022-11-16T03:31:07.708Z,5.21
2022-11-16T03:33:48.014Z,5.53
2022-11-16T03:36:30.955Z,5.45
2022-11-16T03:39:07.283Z,5.41
2022-11-16T03:41:39.368Z,5.09
2022-11-16T03:44:10.715Z,4.98
2022-11-16T03:46:40.292Z,5.13
2022-11-16T03:49:08.969Z,4.73
2022-11-16T03:51:37.704Z,5.09
2022-11-16T03:54:05.861Z,4.88
2022-11-16T03:56:34.288Z,4.72
2022-11-16T03:59:02.642Z,4.60
2022-11-16T04:01:31.050Z,4.25
2022-11-16T04:03:58.621Z,4.10
2022-11-16T04:06:44.284Z,3.99
2022-11-16T04:09:29.758Z,3.99
2022-11-16T04:12:14.959Z,4.29
2022-11-16T04:15:01.380Z,4.60
2022-11-16T04:17:48.847Z,4.77
2022-11-16T04:20:34.913Z,4.89
2022-11-16T04:23:25.501Z,4.94
2022-11-16T04:25:53.176Z,5.00
2022-11-16T04:28:24.283Z,5.01
2022-11-16T04:31:17.392Z,4.98
2022-11-16T04:34:36.097Z,5.12
2022-11-16T04:37:23.096Z,5.25
2022-11-16T04:39:50.144Z,5.11
2022-11-16T04:42:20.058Z,4.82
2022-11-16T04:45:08.716Z,4.89
2022-11-16T04:47:44.254Z,4.80
2022-11-16T04:50:12.626Z,4.74
2022-11-16T04:52:41.022Z,4.61
2022-11-16T04:55:11.633Z,4.76
2022-11-16T04:57:38.868Z,4.84
2022-11-16T05:00:07.542Z,4.83
2022-11-16T05:02:36.389Z,4.57
2022-11-16T05:05:03.440Z,4.62
2022-11-16T05:07:30.616Z,4.59
2022-11-16T05:10:07.166Z,4.69
2022-11-16T05:12:35.081Z,4.52
2022-11-16T05:15:06.344Z,4.68
2022-11-16T05:17:34.510Z,4.46
2022-11-16T05:20:22.325Z,4.19
2022-11-16T05:22:58.712Z,4.01
2022-11-16T05:25:36.111Z,4.05
2022-11-16T05:28:06.398Z,4.28
2022-11-16T05:30:37.782Z,4.85
2022-11-16T05:33:04.981Z,4.92
2022-11-16T05:35:35.958Z,5.22
2022-11-16T05:38:03.005Z,5.01
2022-11-16T05:40:33.468Z,5.15
2022-11-16T05:43:01.367Z,5.14
2022-11-16T05:45:31.986Z,5.15
2022-11-16T05:48:00.456Z,5.23
2022-11-16T05:50:27.622Z,5.46
2022-11-16T05:53:06.577Z,5.51
2022-11-16T05:55:36.044Z,5.50
2022-11-16T05:58:03.052Z,5.55
2022-11-16T06:00:30.131Z,5.52
2022-11-16T06:02:58.942Z,5.53
2022-11-16T06:05:29.665Z,5.59
2022-11-16T06:07:58.213Z,5.68
2022-11-16T06:10:25.314Z,6.07
2022-11-16T06:12:53.494Z,6.46
2022-11-16T06:15:20.349Z,6.82
2022-11-16T06:17:47.808Z,6.79
2022-11-16T06:20:16.031Z,6.99
2022-11-16T06:22:44.158Z,7.18
2022-11-16T06:25:11.811Z,7.20
2022-11-16T06:27:42.359Z,7.36
2022-11-16T06:30:11.401Z,7.62
2022-11-16T06:32:40.193Z,7.90
2022-11-16T06:35:08.369Z,7.91
2022-11-16T06:37:36.717Z,7.91
2022-11-16T06:40:03.999Z,8.13
2022-11-16T06:42:35.116Z,8.37
2022-11-16T06:45:02.457Z,8.48
2022-11-16T06:47:36.132Z,8.57
2022-11-16T06:50:05.065Z,8.70
2022-11-16T06:52:33.708Z,8.95
2022-11-16T06:55:00.573Z,9.07
2022-11-16T06:57:31.416Z,9.17
2022-11-16T06:59:58.463Z,9.07
2022-11-16T07:02:25.431Z,9.13
2022-11-16T07:04:53.800Z,9.49
2022-11-16T07:07:20.849Z,10.01
2022-11-16T07:09:48.066Z,10.08
2022-11-16T07:12:15.754Z,10.14
2022-11-16T07:14:45.483Z,10.41
2022-11-16T07:17:13.464Z,10.49
2022-11-16T07:19:40.436Z,10.40
2022-11-16T07:22:07.972Z,10.56
2022-11-16T07:24:34.984Z,10.64
2022-11-16T07:27:02.696Z,10.22
2022-11-16T07:29:35.717Z,10.17
2022-11-16T07:32:22.879Z,10.03
2022-11-16T07:35:12.530Z,10.50
2022-11-16T07:37:40.147Z,10.72
2022-11-16T07:40:09.005Z,10.93
2022-11-16T07:42:37.454Z,11.08
2022-11-16T07:45:27.426Z,11.19
2022-11-16T07:47:58.576Z,11.24
2022-11-16T07:50:44.256Z,10.95
2022-11-16T07:53:11.443Z,11.06
2022-11-16T07:55:39.419Z,10.83
2022-11-16T07:58:06.509Z,10.87
2022-11-16T08:00:33.599Z,10.43
2022-11-16T08:03:09.321Z,10.67
2022-11-16T08:05:36.910Z,10.85
2022-11-16T08:08:04.234Z,10.73
2022-11-16T08:10:34.435Z,10.99
2022-11-16T08:13:01.390Z,11.21
2022-11-16T08:15:28.721Z,11.06
2022-11-16T08:17:59.511Z,10.84
2022-11-16T08:20:28.843Z,10.81
2022-11-16T08:22:59.705Z,10.70
2022-11-16T08:25:27.160Z,10.83
2022-11-16T08:27:54.180Z,10.84
2022-11-16T08:30:21.261Z,10.74
2022-11-16T08:32:48.592Z,10.98
2022-11-16T08:35:16.716Z,10.89
2022-11-16T08:37:45.262Z,10.58
2022-11-16T08:40:12.470Z,11.05
2022-11-16T08:42:43.661Z,11.34
2022-11-16T08:45:11.479Z,11.50
2022-11-16T08:47:38.382Z,11.75
2022-11-16T08:50:07.467Z,12.10
2022-11-16T08:52:34.466Z,12.41
2022-11-16T08:55:02.704Z,11.97
2022-11-16T08:57:30.222Z,12.11
2022-11-16T08:59:59.881Z,12.28
2022-11-16T09:02:26.818Z,12.47
2022-11-16T09:04:53.760Z,12.86
2022-11-16T09:07:21.661Z,12.82
2022-11-16T09:09:48.909Z,13.20
2022-11-16T09:12:16.090Z,12.95
2022-11-16T09:14:42.999Z,13.43
2022-11-16T09:17:09.949Z,13.66
2022-11-16T09:19:36.831Z,13.97
2022-11-16T09:22:04.204Z,13.59
2022-11-16T09:24:31.546Z,13.85
2022-11-16T09:27:01.647Z,13.87
2022-11-16T09:29:28.813Z,13.93
2022-11-16T09:31:56.304Z,14.15
2022-11-16T09:34:23.154Z,14.11
2022-11-16T09:36:50.075Z,14.31
2022-11-16T09:42:07.374Z,14.43
2022-11-16T10:18:08.549Z,13.78
2022-11-16T10:21:00.227Z,13.94
2022-11-16T10:23:44.016Z,13.95
2022-11-16T10:26:17.034Z,13.79
2022-11-16T10:28:57.707Z,14.23
2022-11-16T10:31:33.429Z,14.74
2022-11-16T10:34:03.385Z,14.99
2022-11-16T10:36:32.643Z,15.20
2022-11-16T10:39:01.149Z,15.43
2022-11-16T10:41:50.711Z,15.86
2022-11-16T10:44:25.890Z,15.87
2022-11-16T10:47:01.772Z,16.10
2022-11-16T10:49:43.950Z,15.95
2022-11-16T10:52:10.839Z,16.02
2022-11-16T10:54:42.852Z,15.37
2022-11-16T10:57:14.246Z,15.22
2022-11-16T10:59:44.059Z,15.64
2022-11-16T11:02:31.361Z,15.58
2022-11-16T11:05:14.463Z,15.72
2022-11-16T11:07:45.940Z,15.57
2022-11-16T11:10:29.884Z,14.95
2022-11-16T11:13:08.124Z,14.75
2022-11-16T11:15:35.153Z,14.85
2022-11-16T11:18:26.837Z,14.39
2022-11-16T11:21:16.925Z,14.42
2022-11-16T11:23:47.775Z,14.88
2022-11-16T11:26:37.370Z,14.45
2022-11-16T11:29:20.150Z,14.22
2022-11-16T11:31:54.096Z,14.48
2022-11-16T11:34:24.895Z,14.64
2022-11-16T11:36:56.704Z,14.60
2022-11-16T11:42:26.534Z,14.61
2022-11-16T11:45:15.374Z,14.38
2022-11-16T11:47:58.595Z,14.51
2022-11-16T11:50:33.815Z,14.45
2022-11-16T11:53:42.471Z,14.27
2022-11-16T11:56:12.502Z,14.36
2022-11-16T11:58:41.118Z,14.56
2022-11-16T12:01:33.664Z,14.38
2022-11-16T12:04:25.312Z,14.39
2022-11-16T12:07:18.474Z,14.44
2022-11-16T12:10:10.901Z,14.35
2022-11-16T12:12:47.598Z,14.46
2022-11-16T12:15:44.961Z,14.66
2022-11-16T12:18:17.510Z,14.49
2022-11-16T12:21:11.799Z,14.68
2022-11-16T12:23:47.023Z,14.45
2022-11-16T12:26:53.881Z,14.42
2022-11-16T12:29:45.240Z,14.37
2022-11-16T12:32:25.592Z,14.22
2022-11-16T12:35:10.892Z,14.16
2022-11-16T12:37:49.547Z,14.25
2022-11-16T12:40:43.731Z,14.35
2022-11-16T12:43:19.666Z,14.27
2022-11-16T12:45:54.017Z,14.29
2022-11-16T12:48:36.180Z,14.08
2022-11-16T12:51:32.003Z,14.11
2022-11-16T12:54:13.877Z,14.01
2022-11-16T12:56:54.345Z,13.95
2022-11-16T12:59:34.525Z,14.04
2022-11-16T13:02:08.589Z,13.94
2022-11-16T13:04:51.811Z,14.12
2022-11-16T13:07:25.158Z,14.19
2022-11-16T13:10:03.381Z,13.99
2022-11-16T13:12:32.116Z,13.95
2022-11-16T13:15:02.329Z,13.98
2022-11-16T13:17:33.621Z,13.96
2022-11-16T13:20:33.551Z,13.96
2022-11-16T13:23:14.818Z,13.90
2022-11-16T13:26:10.500Z,14.10
2022-11-16T13:28:56.394Z,14.06
2022-11-16T13:31:56.421Z,14.10
2022-11-16T13:34:31.392Z,14.25
2022-11-16T13:36:58.533Z,14.25
2022-11-16T13:39:57.711Z,14.25
2022-11-16T13:42:25.611Z,14.14
2022-11-16T13:44:54.083Z,14.20
2022-11-16T13:47:32.844Z,14.29
2022-11-16T13:50:02.527Z,14.24
2022-11-16T13:53:40.848Z,14.33
2022-11-16T13:55:38.725Z,14.36
2022-11-16T13:58:07.618Z,14.39
2022-11-16T14:00:40.436Z,14.41
2022-11-16T14:03:15.938Z,14.35
2022-11-16T14:05:47.866Z,14.30
2022-11-16T14:08:20.618Z,14.27
2022-11-16T14:10:53.006Z,14.29
2022-11-16T14:13:40.546Z,14.27
2022-11-16T14:16:22.841Z,14.22
2022-11-16T14:18:52.048Z,14.14
2022-11-16T14:21:57.416Z,14.08
2022-11-16T14:24:56.583Z,14.09
2022-11-16T14:27:39.789Z,13.73
2022-11-16T14:30:25.167Z,13.25
2022-11-16T14:32:54.736Z,13.01
2022-11-16T14:35:27.642Z,12.94
2022-11-16T14:38:05.013Z,12.85
2022-11-16T14:40:41.938Z,12.93
2022-11-16T14:43:18.354Z,12.79
2022-11-16T14:45:52.337Z,12.58
2022-11-16T14:48:21.458Z,12.56
2022-11-16T14:51:11.154Z,12.38
2022-11-16T14:53:42.494Z,12.26
2022-11-16T14:56:14.970Z,12.23
2022-11-16T14:59:16.499Z,12.13
2022-11-16T15:01:43.455Z,11.77
2022-11-16T15:04:12.256Z,11.67
2022-11-16T15:07:01.704Z,11.45
2022-11-16T15:09:33.226Z,11.40
2022-11-16T15:12:27.029Z,11.24
2022-11-16T15:14:56.362Z,11.04
2022-11-16T15:17:31.763Z,10.82
2022-11-16T15:20:20.644Z,10.68
2022-11-16T15:22:51.893Z,10.67
2022-11-16T15:25:32.291Z,10.48
2022-11-16T15:28:04.555Z,10.73
2022-11-16T15:30:34.508Z,10.75
2022-11-16T15:33:04.488Z,10.88
2022-11-16T15:35:34.661Z,11.04
2022-11-16T15:38:32.995Z,10.97
2022-11-16T15:41:04.822Z,11.11
2022-11-16T15:43:44.774Z,11.09
2022-11-16T15:46:17.958Z,11.14
2022-11-16T15:48:46.044Z,11.14
2022-11-16T15:51:20.176Z,11.18
2022-11-16T15:53:49.308Z,11.17
2022-11-16T15:56:16.117Z,11.21
2022-11-16T15:58:43.727Z,11.29
2022-11-16T16:01:12.642Z,11.22
2022-11-16T16:03:50.381Z,10.94
2022-11-16T16:06:46.039Z,11.15
2022-11-16T16:09:27.866Z,11.28
2022-11-16T16:12:10.968Z,11.02
2022-11-16T16:14:38.316Z,11.21
2022-11-16T16:17:05.263Z,11.23
2022-11-16T16:19:45.351Z,11.18
2022-11-16T16:22:28.385Z,11.19
2022-11-16T16:24:55.665Z,11.26
2022-11-16T16:27:24.976Z,11.26
2022-11-16T16:29:53.892Z,11.35
2022-11-16T16:32:28.059Z,11.19
2022-11-16T16:34:57.175Z,11.09
2022-11-16T16:37:26.536Z,11.23
2022-11-16T16:39:53.446Z,11.08
2022-11-16T16:42:20.376Z,10.90
2022-11-16T16:44:48.071Z,10.93
2022-11-16T16:47:16.723Z,10.83
2022-11-16T16:49:43.766Z,10.84
2022-11-16T16:52:13.904Z,10.84
2022-11-16T16:54:41.217Z,10.91
2022-11-16T16:57:13.944Z,10.99
2022-11-16T16:59:40.857Z,11.00
2022-11-16T17:02:11.779Z,11.13
2022-11-16T17:04:38.759Z,10.98
2022-11-16T17:07:06.059Z,11.05
2022-11-16T17:09:32.963Z,11.12
2022-11-16T17:11:59.875Z,11.14
2022-11-16T17:14:26.816Z,11.10
2022-11-16T17:16:53.826Z,11.17
2022-11-16T17:19:23.220Z,11.13
2022-11-16T17:21:51.683Z,11.10
2022-11-16T17:24:18.655Z,11.13
2022-11-16T17:26:48.492Z,11.09
2022-11-16T17:29:15.403Z,11.11
2022-11-16T17:31:44.225Z,10.87
2022-11-16T17:34:13.829Z,10.56
2022-11-16T17:36:42.228Z,10.77
2022-11-16T17:39:09.534Z,10.83
2022-11-16T17:41:37.237Z,10.77
2022-11-16T17:44:04.807Z,10.61
2022-11-16T17:46:31.635Z,10.71
2022-11-16T17:48:58.706Z,10.68
2022-11-16T17:51:26.122Z,10.49
2022-11-16T17:53:53.074Z,10.43
2022-11-16T17:56:22.306Z,10.39
2022-11-16T17:58:52.670Z,10.46
2022-11-16T18:01:19.612Z,10.59
2022-11-16T18:03:46.629Z,10.59
2022-11-16T18:06:21.829Z,10.47
2022-11-16T18:08:49.303Z,10.60
2022-11-16T18:11:24.705Z,10.47
2022-11-16T18:14:00.683Z,10.56
2022-11-16T18:16:32.705Z,10.46
2022-11-16T18:19:02.197Z,10.37
2022-11-16T18:21:29.529Z,10.46
2022-11-16T18:23:59.195Z,10.55
2022-11-16T18:26:26.167Z,10.41
2022-11-16T18:28:53.968Z,10.52
2022-11-16T18:31:22.818Z,10.50
2022-11-16T18:33:49.948Z,10.37
2022-11-16T18:36:19.242Z,10.24
2022-11-16T18:38:46.893Z,10.05
2022-11-16T18:41:13.730Z,10.24
2022-11-16T18:43:58.999Z,10.18
2022-11-16T18:46:28.036Z,10.40
2022-11-16T18:48:56.141Z,10.46
2022-11-16T18:51:24.665Z,10.35
2022-11-16T18:53:51.927Z,10.26
2022-11-16T18:56:19.463Z,9.94
2022-11-16T18:58:51.431Z,10.18
2022-11-16T19:01:22.212Z,10.16
2022-11-16T19:03:50.347Z,10.17
2022-11-16T19:06:18.193Z,10.02
2022-11-16T19:08:50.390Z,10.17
2022-11-16T19:11:21.689Z,10.23
2022-11-16T19:13:56.160Z,10.13
2022-11-16T19:16:24.750Z,10.24
2022-11-16T19:18:52.118Z,10.37
2022-11-16T19:21:19.867Z,10.40
2022-11-16T19:23:49.083Z,10.46
2022-11-16T19:26:17.786Z,10.38
2022-11-16T19:28:49.101Z,10.17
2022-11-16T19:31:24.377Z,10.37
2022-11-16T19:34:02.444Z,10.36
2022-11-16T19:36:30.893Z,9.99
2022-11-16T19:38:58.331Z,9.96
2022-11-16T19:41:27.296Z,10.02
2022-11-16T19:43:59.161Z,10.21
2022-11-16T19:46:34.087Z,10.13
2022-11-16T19:49:01.357Z,9.89
2022-11-16T19:51:30.736Z,10.20
2022-11-16T19:54:00.119Z,10.19
2022-11-16T19:56:27.066Z,10.13
2022-11-16T19:58:53.989Z,10.13
2022-11-16T20:01:28.028Z,10.16
2022-11-16T20:03:59.269Z,10.06
2022-11-16T20:06:29.328Z,10.19
2022-11-16T20:09:00.995Z,10.21
2022-11-16T20:11:34.166Z,9.99
2022-11-16T20:14:03.195Z,9.93
2022-11-16T20:16:37.140Z,9.99
2022-11-16T20:19:07.428Z,10.00
2022-11-16T20:21:37.058Z,10.01
2022-11-16T20:24:07.063Z,10.14
2022-11-16T20:26:35.929Z,10.04
2022-11-16T20:29:03.498Z,9.99
2022-11-16T20:31:32.242Z,9.98
2022-11-16T20:34:03.575Z,10.12
2022-11-16T20:36:32.447Z,10.02
2022-11-16T20:39:00.929Z,10.12
2022-11-16T20:41:32.823Z,10.18
2022-11-16T20:44:01.339Z,10.05
2022-11-16T20:46:31.058Z,10.04
2022-11-16T20:49:00.511Z,10.02
2022-11-16T20:51:28.930Z,10.08
2022-11-16T20:53:55.888Z,10.17
2022-11-16T20:56:22.863Z,10.06
2022-11-16T20:58:50.171Z,10.27
2022-11-16T21:01:19.878Z,10.27
2022-11-16T21:03:47.170Z,10.38
2022-11-16T21:06:14.893Z,10.30
2022-11-16T21:08:42.080Z,10.23
2022-11-16T21:11:14.160Z,10.20
2022-11-16T21:13:59.839Z,10.27
2022-11-16T21:16:26.825Z,10.31
2022-11-16T21:18:54.662Z,10.45
2022-11-16T21:21:21.732Z,10.36
2022-11-16T21:23:51.952Z,10.48
2022-11-16T21:26:21.699Z,10.48
2022-11-16T21:28:48.762Z,10.43
2022-11-16T21:31:18.487Z,10.56
2022-11-16T21:33:46.108Z,10.69
2022-11-16T21:36:20.364Z,10.58
2022-11-16T21:38:47.957Z,10.66
2022-11-16T21:41:16.335Z,10.68
2022-11-16T21:43:44.355Z,10.74
2022-11-16T21:46:16.478Z,10.60
2022-11-16T21:48:43.964Z,10.81
2022-11-16T21:51:13.256Z,10.79
2022-11-16T21:53:40.923Z,10.98
2022-11-16T21:56:12.759Z,10.83
2022-11-16T21:58:40.565Z,10.79
2022-11-16T22:01:07.973Z,10.70
2022-11-16T22:03:35.163Z,10.79
2022-11-16T22:06:24.287Z,10.86
2022-11-16T22:08:51.323Z,10.77
2022-11-16T22:11:22.268Z,10.77
2022-11-16T22:13:50.470Z,10.90
2022-11-16T22:16:19.665Z,10.92
2022-11-16T22:18:46.709Z,10.93
2022-11-16T22:21:13.614Z,10.73
2022-11-16T22:23:40.887Z,10.70
2022-11-16T22:26:11.280Z,10.83
2022-11-16T22:28:38.328Z,10.77
2022-11-16T22:31:15.279Z,10.88
2022-11-16T22:33:42.466Z,10.90
2022-11-16T22:36:10.685Z,10.95
2022-11-16T22:38:38.040Z,10.93
2022-11-16T22:41:05.300Z,10.89
2022-11-16T22:43:33.016Z,10.87
2022-11-16T22:46:05.575Z,10.99
2022-11-16T22:48:38.012Z,10.77
2022-11-16T22:51:12.087Z,10.91
2022-11-16T22:53:39.229Z,10.87
2022-11-16T22:56:08.186Z,10.87
2022-11-16T22:58:36.905Z,10.77
2022-11-16T23:01:05.139Z,10.76
2022-11-16T23:03:32.159Z,10.60
2022-11-16T23:05:59.864Z,10.61
2022-11-16T23:08:27.722Z,10.72
2022-11-16T23:11:17.237Z,10.63
2022-11-16T23:14:03.214Z,10.67
2022-11-16T23:16:30.146Z,10.70
2022-11-16T23:18:57.254Z,10.46
2022-11-16T23:21:42.902Z,10.50
2022-11-16T23:24:32.782Z,10.44
2022-11-16T23:27:20.933Z,10.44
2022-11-16T23:29:48.091Z,10.35
2022-11-16T23:32:14.982Z,10.45
2022-11-16T23:34:41.815Z,10.50
2022-11-16T23:37:08.689Z,10.43
2022-11-16T23:39:35.595Z,10.42
2022-11-16T23:42:20.738Z,10.44
2022-11-16T23:44:47.693Z,10.12
2022-11-16T23:47:14.558Z,10.24
2022-11-16T23:49:41.755Z,10.29
2022-11-16T23:52:08.884Z,10.09
2022-11-16T23:54:35.864Z,10.03
2022-11-16T23:57:02.849Z,10.18
2022-11-16T23:59:29.695Z,10.08
